sensor_id;sensor_type;location;lat;lon;timestamp;pressure;altitude;pressure_sealevel;temperature;humidity
3917;BME280;1973;50.518;7.318;2023-03-15T00:00:53;100625.28;;;2.20;100.00
3917;BME280;1973;50.518;7.318;2023-03-15T00:03:21;100628.00;;;2.20;100.00
3917;BME280;1973;50.518;7.318;2023-03-15T00:05:50;100632.41;;;2.21;100.00
3917;BME280;1973;50.518;7.318;2023-03-15T00:08:17;100629.34;;;2.16;100.00
3917;BME280;1973;50.518;7.318;2023-03-15T00:10:45;100633.06;;;2.15;100.00
3917;BME280;1973;50.518;7.318;2023-03-15T00:13:13;100633.91;;;2.16;100.00
3917;BME280;1973;50.518;7.318;2023-03-15T00:15:48;100642.25;;;2.14;100.00
3917;BME280;1973;50.518;7.318;2023-03-15T00:18:16;100652.06;;;2.15;100.00
3917;BME280;1973;50.518;7.318;2023-03-15T00:20:43;100653.78;;;2.16;100.00
3917;BME280;1973;50.518;7.318;2023-03-15T00:23:10;100663.97;;;2.14;100.00
3917;BME280;1973;50.518;7.318;2023-03-15T00:25:36;100663.97;;;2.14;100.00
3917;BME280;1973;50.518;7.318;2023-03-15T00:28:03;100671.06;;;2.15;100.00
3917;BME280;1973;50.518;7.318;2023-03-15T00:30:30;100667.69;;;2.13;100.00
3917;BME280;1973;50.518;7.318;2023-03-15T00:32:57;100663.25;;;2.12;100.00
3917;BME280;1973;50.518;7.318;2023-03-15T00:35:23;100668.69;;;2.12;100.00
3917;BME280;1973;50.518;7.318;2023-03-15T00:37:54;100673.25;;;2.12;100.00
3917;BME280;1973;50.518;7.318;2023-03-15T00:40:22;100671.03;;;2.07;100.00
3917;BME280;1973;50.518;7.318;2023-03-15T00:42:49;100676.66;;;2.06;100.00
3917;BME280;1973;50.518;7.318;2023-03-15T00:45:20;100674.09;;;2.04;100.00
3917;BME280;1973;50.518;7.318;2023-03-15T00:47:51;100682.41;;;2.03;100.00
3917;BME280;1973;50.518;7.318;2023-03-15T00:50:18;100687.31;;;1.99;100.00
3917;BME280;1973;50.518;7.318;2023-03-15T00:52:45;100691.03;;;1.98;100.00
3917;BME280;1973;50.518;7.318;2023-03-15T00:55:14;100695.59;;;1.98;100.00
3917;BME280;1973;50.518;7.318;2023-03-15T00:57:43;100692.03;;;1.97;100.00
3917;BME280;1973;50.518;7.318;2023-03-15T01:00:13;100694.75;;;1.97;100.00
3917;BME280;1973;50.518;7.318;2023-03-15T01:02:40;100695.47;;;1.99;100.00
3917;BME280;1973;50.518;7.318;2023-03-15T01:05:08;100691.03;;;1.98;100.00
3917;BME280;1973;50.518;7.318;2023-03-15T01:07:35;100683.75;;;1.99;100.00
3917;BME280;1973;50.518;7.318;2023-03-15T01:10:03;100690.03;;;1.99;100.00
3917;BME280;1973;50.518;7.318;2023-03-15T01:12:31;100684.75;;;1.98;100.00
3917;BME280;1973;50.518;7.318;2023-03-15T01:14:59;100678.81;;;1.94;100.00
3917;BME280;1973;50.518;7.318;2023-03-15T01:17:25;100680.84;;;1.92;100.00
3917;BME280;1973;50.518;7.318;2023-03-15T01:19:52;100672.31;;;1.87;100.00
3917;BME280;1973;50.518;7.318;2023-03-15T01:22:19;100680.47;;;1.87;100.00
3917;BME280;1973;50.518;7.318;2023-03-15T01:24:45;100676.91;;;1.86;100.00
3917;BME280;1973;50.518;7.318;2023-03-15T01:27:12;100677.91;;;1.85;100.00
3917;BME280;1973;50.518;7.318;2023-03-15T01:29:38;100681.47;;;1.86;100.00
3917;BME280;1973;50.518;7.318;2023-03-15T01:32:06;100686.03;;;1.85;100.00
3917;BME280;1973;50.518;7.318;2023-03-15T01:34:33;100690.63;;;1.85;100.00
3917;BME280;1973;50.518;7.318;2023-03-15T01:36:59;100688.59;;;1.87;100.00
3917;BME280;1973;50.518;7.318;2023-03-15T01:39:26;100680.47;;;1.87;100.00
3917;BME280;1973;50.518;7.318;2023-03-15T01:41:52;100686.75;;;1.87;100.00
3917;BME280;1973;50.518;7.318;2023-03-15T01:44:19;100687.59;;;1.88;100.00
3917;BME280;1973;50.518;7.318;2023-03-15T01:46:46;100693.19;;;1.86;100.00
3917;BME280;1973;50.518;7.318;2023-03-15T01:49:16;100699.47;;;1.87;100.00
3917;BME280;1973;50.518;7.318;2023-03-15T01:51:52;100706.91;;;1.85;100.00
3917;BME280;1973;50.518;7.318;2023-03-15T01:54:25;100700.66;;;1.84;100.00
3917;BME280;1973;50.518;7.318;2023-03-15T01:57:00;100704.19;;;1.85;100.00
3917;BME280;1973;50.518;7.318;2023-03-15T01:59:33;100707.75;;;1.85;100.00
3917;BME280;1973;50.518;7.318;2023-03-15T02:02:03;100717.75;;;1.85;100.00
3917;BME280;1973;50.518;7.318;2023-03-15T02:04:35;100708.59;;;1.86;100.00
3917;BME280;1973;50.518;7.318;2023-03-15T02:07:04;100721.19;;;1.87;100.00
3917;BME280;1973;50.518;7.318;2023-03-15T02:09:40;100721.03;;;1.88;100.00
3917;BME280;1973;50.518;7.318;2023-03-15T02:12:08;100721.19;;;1.87;100.00
3917;BME280;1973;50.518;7.318;2023-03-15T02:14:36;100723.41;;;1.91;100.00
3917;BME280;1973;50.518;7.318;2023-03-15T02:17:03;100724.25;;;1.92;100.00
3917;BME280;1973;50.518;7.318;2023-03-15T02:19:45;100721.03;;;1.96;100.00
3917;BME280;1973;50.518;7.318;2023-03-15T02:22:24;100702.75;;;1.99;100.00
3917;BME280;1973;50.518;7.318;2023-03-15T02:25:05;100706.00;;;2.02;100.00
3917;BME280;1973;50.518;7.318;2023-03-15T02:27:35;100703.78;;;2.06;100.00
3917;BME280;1973;50.518;7.318;2023-03-15T02:30:03;100696.84;;;2.11;100.00
3917;BME280;1973;50.518;7.318;2023-03-15T02:32:30;100696.53;;;2.14;100.00
3917;BME280;1973;50.518;7.318;2023-03-15T02:34:57;100700.78;;;2.17;100.00
3917;BME280;1973;50.518;7.318;2023-03-15T02:37:24;100703.00;;;2.21;100.00
3917;BME280;1973;50.518;7.318;2023-03-15T02:39:50;100704.38;;;2.25;100.00
3917;BME280;1973;50.518;7.318;2023-03-15T02:42:16;100705.72;;;2.29;100.00
3917;BME280;1973;50.518;7.318;2023-03-15T02:44:47;100702.53;;;2.34;100.00
3917;BME280;1973;50.518;7.318;2023-03-15T02:47:20;100694.91;;;2.37;100.00
3917;BME280;1973;50.518;7.318;2023-03-15T02:49:51;100705.94;;;2.44;100.00
3917;BME280;1973;50.518;7.318;2023-03-15T02:52:20;100705.63;;;2.47;100.00
3917;BME280;1973;50.518;7.318;2023-03-15T02:54:46;100706.31;;;2.49;100.00
3917;BME280;1973;50.518;7.318;2023-03-15T02:57:15;100703.44;;;2.51;100.00
3917;BME280;1973;50.518;7.318;2023-03-15T02:59:42;100700.53;;;2.52;100.00
3917;BME280;1973;50.518;7.318;2023-03-15T03:02:10;100695.63;;;2.56;100.00
3917;BME280;1973;50.518;7.318;2023-03-15T03:04:37;100693.41;;;2.59;100.00
3917;BME280;1973;50.518;7.318;2023-03-15T03:07:04;100690.41;;;2.62;100.00
3917;BME280;1973;50.518;7.318;2023-03-15T03:09:31;100699.06;;;2.66;100.00
3917;BME280;1973;50.518;7.318;2023-03-15T03:11:57;100694.28;;;2.68;100.00
3917;BME280;1973;50.518;7.318;2023-03-15T03:14:24;100706.03;;;2.68;100.00
3917;BME280;1973;50.518;7.318;2023-03-15T03:16:51;100714.84;;;2.70;100.00
3917;BME280;1973;50.518;7.318;2023-03-15T03:19:17;100720.78;;;2.74;100.00
3917;BME280;1973;50.518;7.318;2023-03-15T03:21:44;100722.34;;;2.76;100.00
3917;BME280;1973;50.518;7.318;2023-03-15T03:24:11;100721.81;;;2.81;100.00
3917;BME280;1973;50.518;7.318;2023-03-15T03:26:41;100724.03;;;2.85;100.00
3917;BME280;1973;50.518;7.318;2023-03-15T03:29:11;100731.69;;;2.90;100.00
3917;BME280;1973;50.518;7.318;2023-03-15T03:31:43;100732.22;;;2.93;100.00
3917;BME280;1973;50.518;7.318;2023-03-15T03:34:09;100732.72;;;2.97;100.00
3917;BME280;1973;50.518;7.318;2023-03-15T03:36:40;100732.38;;;3.00;100.00
3917;BME280;1973;50.518;7.318;2023-03-15T03:39:07;100726.59;;;3.03;100.00
3917;BME280;1973;50.518;7.318;2023-03-15T03:41:33;100732.41;;;3.08;100.00
3917;BME280;1973;50.518;7.318;2023-03-15T03:44:00;100731.38;;;3.09;100.00
3917;BME280;1973;50.518;7.318;2023-03-15T03:46:26;100739.19;;;3.12;100.00
3917;BME280;1973;50.518;7.318;2023-03-15T03:48:54;100743.63;;;3.13;100.00
3917;BME280;1973;50.518;7.318;2023-03-15T03:51:20;100755.19;;;3.15;100.00
3917;BME280;1973;50.518;7.318;2023-03-15T03:53:47;100750.09;;;3.20;100.00
3917;BME280;1973;50.518;7.318;2023-03-15T03:56:13;100752.97;;;3.27;100.00
3917;BME280;1973;50.518;7.318;2023-03-15T03:58:39;100750.06;;;3.36;100.00
3917;BME280;1973;50.518;7.318;2023-03-15T04:01:06;100753.66;;;3.45;100.00
3917;BME280;1973;50.518;7.318;2023-03-15T04:03:33;100748.72;;;3.49;100.00
3917;BME280;1973;50.518;7.318;2023-03-15T04:05:59;100752.63;;;3.54;100.00
3917;BME280;1973;50.518;7.318;2023-03-15T04:08:26;100750.22;;;3.59;100.00
3917;BME280;1973;50.518;7.318;2023-03-15T04:10:54;100761.31;;;3.66;100.00
3917;BME280;1973;50.518;7.318;2023-03-15T04:13:21;100757.53;;;3.67;100.00
3917;BME280;1973;50.518;7.318;2023-03-15T04:15:49;100753.28;;;3.72;100.00
3917;BME280;1973;50.518;7.318;2023-03-15T04:18:17;100759.91;;;3.78;100.00
3917;BME280;1973;50.518;7.318;2023-03-15T04:20:43;100761.63;;;3.79;100.00
3917;BME280;1973;50.518;7.318;2023-03-15T04:23:15;100757.53;;;3.83;100.00
3917;BME280;1973;50.518;7.318;2023-03-15T04:25:47;100761.63;;;3.79;100.00
3917;BME280;1973;50.518;7.318;2023-03-15T04:28:15;100762.28;;;3.81;100.00
3917;BME280;1973;50.518;7.318;2023-03-15T04:30:42;100756.84;;;3.81;100.00
3917;BME280;1973;50.518;7.318;2023-03-15T04:33:09;100765.69;;;3.83;100.00
3917;BME280;1973;50.518;7.318;2023-03-15T04:35:37;100768.41;;;3.83;100.00
3917;BME280;1973;50.518;7.318;2023-03-15T04:38:04;100757.34;;;3.84;100.00
3917;BME280;1973;50.518;7.318;2023-03-15T04:40:32;100762.97;;;3.83;100.00
3917;BME280;1973;50.518;7.318;2023-03-15T04:43:02;100768.41;;;3.83;100.00
3917;BME280;1973;50.518;7.318;2023-03-15T04:45:29;100770.44;;;3.81;100.00
3917;BME280;1973;50.518;7.318;2023-03-15T04:47:56;100783.22;;;3.80;100.00
3917;BME280;1973;50.518;7.318;2023-03-15T04:50:23;100777.78;;;3.80;100.00
3917;BME280;1973;50.518;7.318;2023-03-15T04:52:50;100783.03;;;3.82;100.00
3917;BME280;1973;50.518;7.318;2023-03-15T04:55:17;100778.44;;;3.82;100.00
3917;BME280;1973;50.518;7.318;2023-03-15T04:57:43;100785.41;;;3.85;100.00
3917;BME280;1973;50.518;7.318;2023-03-15T05:00:10;100791.06;;;3.83;100.00
3917;BME280;1973;50.518;7.318;2023-03-15T05:02:38;100791.22;;;3.82;100.00
3917;BME280;1973;50.518;7.318;2023-03-15T05:05:08;100795.63;;;3.83;100.00
3917;BME280;1973;50.518;7.318;2023-03-15T05:07:35;100792.91;;;3.83;100.00
3917;BME280;1973;50.518;7.318;2023-03-15T05:10:02;100791.06;;;3.83;100.00
3917;BME280;1973;50.518;7.318;2023-03-15T05:12:30;100790.34;;;3.81;100.00
3917;BME280;1973;50.518;7.318;2023-03-15T05:14:57;100802.09;;;3.82;100.00
3917;BME280;1973;50.518;7.318;2023-03-15T05:17:23;100792.22;;;3.81;100.00
3917;BME280;1973;50.518;7.318;2023-03-15T05:19:50;100793.94;;;3.82;100.00
3917;BME280;1973;50.518;7.318;2023-03-15T05:22:17;100792.72;;;3.84;100.00
3917;BME280;1973;50.518;7.318;2023-03-15T05:24:44;100797.00;;;3.87;100.00
3917;BME280;1973;50.518;7.318;2023-03-15T05:27:10;100789.34;;;3.90;100.00
3917;BME280;1973;50.518;7.318;2023-03-15T05:29:38;100797.16;;;3.93;100.00
3917;BME280;1973;50.518;7.318;2023-03-15T05:32:05;100799.72;;;3.95;100.00
3917;BME280;1973;50.518;7.318;2023-03-15T05:34:31;100806.84;;;3.96;100.00
3917;BME280;1973;50.518;7.318;2023-03-15T05:36:58;100809.41;;;3.98;100.00
3917;BME280;1973;50.518;7.318;2023-03-15T05:39:25;100813.16;;;3.97;100.00
3917;BME280;1973;50.518;7.318;2023-03-15T05:41:51;100826.59;;;3.98;100.00
3917;BME280;1973;50.518;7.318;2023-03-15T05:44:18;100823.03;;;3.98;100.00
3917;BME280;1973;50.518;7.318;2023-03-15T05:46:44;100832.91;;;3.99;100.00
3917;BME280;1973;50.518;7.318;2023-03-15T05:49:11;100838.16;;;4.00;100.00
3917;BME280;1973;50.518;7.318;2023-03-15T05:51:37;100847.53;;;3.98;100.00
3917;BME280;1973;50.518;7.318;2023-03-15T05:54:03;100848.72;;;3.95;100.00
3917;BME280;1973;50.518;7.318;2023-03-15T05:56:30;100855.19;;;3.94;100.00
3917;BME280;1973;50.518;7.318;2023-03-15T05:58:56;100857.06;;;3.93;100.00
3917;BME280;1973;50.518;7.318;2023-03-15T06:01:23;100860.44;;;3.96;100.00
3917;BME280;1973;50.518;7.318;2023-03-15T06:03:49;100864.72;;;3.98;100.00
3917;BME280;1973;50.518;7.318;2023-03-15T06:06:16;100865.59;;;3.99;100.00
3917;BME280;1973;50.518;7.318;2023-03-15T06:08:42;100868.97;;;4.01;100.00
3917;BME280;1973;50.518;7.318;2023-03-15T06:11:08;100868.81;;;4.02;100.00
3917;BME280;1973;50.518;7.318;2023-03-15T06:13:35;100880.38;;;4.04;100.00
3917;BME280;1973;50.518;7.318;2023-03-15T06:16:01;100883.94;;;4.05;100.00
3917;BME280;1973;50.518;7.318;2023-03-15T06:18:28;100885.81;;;4.04;100.00
3917;BME280;1973;50.518;7.318;2023-03-15T06:20:54;100884.09;;;4.03;100.00
3917;BME280;1973;50.518;7.318;2023-03-15T06:23:21;100888.38;;;4.06;100.00
3917;BME280;1973;50.518;7.318;2023-03-15T06:25:47;100883.78;;;4.06;100.00
3917;BME280;1973;50.518;7.318;2023-03-15T06:28:14;100886.31;;;4.08;100.00
3917;BME280;1973;50.518;7.318;2023-03-15T06:30:40;100879.66;;;4.10;100.00
3917;BME280;1973;50.518;7.318;2023-03-15T06:33:07;100875.94;;;4.11;100.00
3917;BME280;1973;50.518;7.318;2023-03-15T06:35:33;100885.66;;;4.14;100.00
3917;BME280;1973;50.518;7.318;2023-03-15T06:37:59;100887.34;;;4.15;100.00
3917;BME280;1973;50.518;7.318;2023-03-15T06:40:26;100895.16;;;4.18;100.00
3917;BME280;1973;50.518;7.318;2023-03-15T06:42:52;100902.81;;;4.22;100.00
3917;BME280;1973;50.518;7.318;2023-03-15T06:45:19;100906.06;;;4.26;100.00
3917;BME280;1973;50.518;7.318;2023-03-15T06:47:46;100907.41;;;4.30;100.00
3917;BME280;1973;50.518;7.318;2023-03-15T06:50:12;100908.78;;;4.34;100.00
3917;BME280;1973;50.518;7.318;2023-03-15T06:52:39;100914.72;;;4.37;100.00
3917;BME280;1973;50.518;7.318;2023-03-15T06:55:05;100909.63;;;4.43;100.00
3917;BME280;1973;50.518;7.318;2023-03-15T06:57:32;100913.88;;;4.45;100.00
3917;BME280;1973;50.518;7.318;2023-03-15T06:59:58;100923.56;;;4.48;100.00
3917;BME280;1973;50.518;7.318;2023-03-15T07:02:25;100922.19;;;4.52;100.00
3917;BME280;1973;50.518;7.318;2023-03-15T07:04:52;100931.56;;;4.57;100.00
3917;BME280;1973;50.518;7.318;2023-03-15T07:07:18;100938.53;;;4.60;100.00
3917;BME280;1973;50.518;7.318;2023-03-15T07:09:45;100945.00;;;4.67;100.00
3917;BME280;1973;50.518;7.318;2023-03-15T07:12:11;100942.63;;;4.72;100.00
3917;BME280;1973;50.518;7.318;2023-03-15T07:14:38;100943.41;;;4.80;100.00
3917;BME280;1973;50.518;7.318;2023-03-15T07:17:04;100941.88;;;4.86;100.00
3917;BME280;1973;50.518;7.318;2023-03-15T07:19:30;100949.03;;;4.95;100.00
3917;BME280;1973;50.518;7.318;2023-03-15T07:21:57;100956.13;;;5.04;100.00
3917;BME280;1973;50.518;7.318;2023-03-15T07:24:23;100951.69;;;5.11;100.00
3917;BME280;1973;50.518;7.318;2023-03-15T07:26:50;100957.28;;;5.18;100.00
3917;BME280;1973;50.518;7.318;2023-03-15T07:29:22;100963.22;;;5.21;100.00
3917;BME280;1973;50.518;7.318;2023-03-15T07:31:49;100970.03;;;5.25;100.00
3917;BME280;1973;50.518;7.318;2023-03-15T07:34:16;100962.53;;;5.27;100.00
3917;BME280;1973;50.518;7.318;2023-03-15T07:36:42;100973.09;;;5.30;100.00
3917;BME280;1973;50.518;7.318;2023-03-15T07:39:09;100971.72;;;5.34;100.00
3917;BME280;1973;50.518;7.318;2023-03-15T07:41:35;100985.38;;;5.34;100.00
3917;BME280;1973;50.518;7.318;2023-03-15T07:44:02;100990.47;;;5.37;100.00
3917;BME280;1973;50.518;7.318;2023-03-15T07:46:28;100989.44;;;5.38;100.00
3917;BME280;1973;50.518;7.318;2023-03-15T07:48:56;100997.44;;;5.40;100.00
3917;BME280;1973;50.518;7.318;2023-03-15T07:51:22;100992.84;;;5.40;100.00
3917;BME280;1973;50.518;7.318;2023-03-15T07:53:48;100998.97;;;5.43;100.00
3917;BME280;1973;50.518;7.318;2023-03-15T07:56:16;101013.28;;;5.45;100.00
3917;BME280;1973;50.518;7.318;2023-03-15T07:58:44;101009.91;;;5.43;100.00
3917;BME280;1973;50.518;7.318;2023-03-15T08:01:10;101017.91;;;5.44;100.00
3917;BME280;1973;50.518;7.318;2023-03-15T08:03:36;101018.09;;;5.43;100.00
3917;BME280;1973;50.518;7.318;2023-03-15T08:06:03;101035.50;;;5.42;100.00
3917;BME280;1973;50.518;7.318;2023-03-15T08:08:30;101035.00;;;5.38;100.00
3917;BME280;1973;50.518;7.318;2023-03-15T08:10:56;101035.16;;;5.36;100.00
3917;BME280;1973;50.518;7.318;2023-03-15T08:13:24;101038.94;;;5.35;100.00
3917;BME280;1973;50.518;7.318;2023-03-15T08:15:51;101038.06;;;5.35;100.00
3917;BME280;1973;50.518;7.318;2023-03-15T08:18:17;101046.28;;;5.35;100.00
3917;BME280;1973;50.518;7.318;2023-03-15T08:20:43;101044.72;;;5.32;100.00
3917;BME280;1973;50.518;7.318;2023-03-15T08:23:10;101044.56;;;5.34;100.00
3917;BME280;1973;50.518;7.318;2023-03-15T08:25:43;101056.34;;;5.34;100.00
3917;BME280;1973;50.518;7.318;2023-03-15T08:28:10;101062.66;;;5.35;100.00
3917;BME280;1973;50.518;7.318;2023-03-15T08:30:37;101067.25;;;5.34;100.00
3917;BME280;1973;50.518;7.318;2023-03-15T08:33:03;101072.72;;;5.34;100.00
3917;BME280;1973;50.518;7.318;2023-03-15T08:35:30;101076.09;;;5.36;100.00
3917;BME280;1973;50.518;7.318;2023-03-15T08:37:58;101078.16;;;5.34;100.00
3917;BME280;1973;50.518;7.318;2023-03-15T08:40:25;101077.81;;;5.37;100.00
3917;BME280;1973;50.518;7.318;2023-03-15T08:42:52;101089.22;;;5.41;100.00
3917;BME280;1973;50.518;7.318;2023-03-15T08:45:20;101083.91;;;5.48;100.00
3917;BME280;1973;50.518;7.318;2023-03-15T08:47:46;101090.38;;;5.55;100.00
3917;BME280;1973;50.518;7.318;2023-03-15T08:50:14;101084.22;;;5.61;100.00
3917;BME280;1973;50.518;7.318;2023-03-15T08:52:42;101094.78;;;5.64;100.00
3917;BME280;1973;50.518;7.318;2023-03-15T08:55:09;101100.09;;;5.65;100.00
3917;BME280;1973;50.518;7.318;2023-03-15T08:57:40;101106.38;;;5.66;100.00
3917;BME280;1973;50.518;7.318;2023-03-15T09:00:07;101105.00;;;5.70;100.00
3917;BME280;1973;50.518;7.318;2023-03-15T09:02:37;101113.75;;;5.65;100.00
3917;BME280;1973;50.518;7.318;2023-03-15T09:05:04;101114.78;;;5.64;100.00
3917;BME280;1973;50.518;7.318;2023-03-15T09:07:32;101114.78;;;5.56;100.00
3917;BME280;1973;50.518;7.318;2023-03-15T09:09:59;101127.25;;;5.51;100.00
3917;BME280;1973;50.518;7.318;2023-03-15T09:12:28;101135.97;;;5.54;100.00
3917;BME280;1973;50.518;7.318;2023-03-15T09:14:55;101132.38;;;5.54;100.00
3917;BME280;1973;50.518;7.318;2023-03-15T09:17:21;101132.91;;;5.49;100.00
3917;BME280;1973;50.518;7.318;2023-03-15T09:19:48;101141.59;;;5.53;100.00
3917;BME280;1973;50.518;7.318;2023-03-15T09:22:14;101140.38;;;5.55;100.00
3917;BME280;1973;50.518;7.318;2023-03-15T09:25:00;101140.03;;;5.58;100.00
3917;BME280;1973;50.518;7.318;2023-03-15T09:27:31;101139.16;;;5.66;100.00
3917;BME280;1973;50.518;7.318;2023-03-15T09:29:58;101148.34;;;5.73;100.00
3917;BME280;1973;50.518;7.318;2023-03-15T09:32:25;101150.69;;;5.84;100.00
3917;BME280;1973;50.518;7.318;2023-03-15T09:34:51;101145.56;;;5.97;100.00
3917;BME280;1973;50.518;7.318;2023-03-15T09:37:18;101149.94;;;6.14;100.00
3917;BME280;1973;50.518;7.318;2023-03-15T09:39:47;101146.25;;;6.30;100.00
3917;BME280;1973;50.518;7.318;2023-03-15T09:42:22;101144.47;;;6.45;100.00
3917;BME280;1973;50.518;7.318;2023-03-15T09:45:03;101140.84;;;6.53;100.00
3917;BME280;1973;50.518;7.318;2023-03-15T09:48:00;101153.47;;;6.54;100.00
3917;BME280;1973;50.518;7.318;2023-03-15T09:50:34;101160.63;;;6.55;100.00
3917;BME280;1973;50.518;7.318;2023-03-15T09:53:05;101159.44;;;6.57;100.00
3917;BME280;1973;50.518;7.318;2023-03-15T09:55:36;101168.19;;;6.53;100.00
3917;BME280;1973;50.518;7.318;2023-03-15T09:58:07;101168.41;;;6.66;100.00
3917;BME280;1973;50.518;7.318;2023-03-15T10:00:37;101155.16;;;6.55;100.00
3917;BME280;1973;50.518;7.318;2023-03-15T10:03:05;101168.91;;;6.69;100.00
3917;BME280;1973;50.518;7.318;2023-03-15T10:05:44;101172.44;;;6.78;100.00
3917;BME280;1973;50.518;7.318;2023-03-15T10:08:16;101176.59;;;6.74;100.00
3917;BME280;1973;50.518;7.318;2023-03-15T10:11:01;101175.84;;;6.80;100.00
3917;BME280;1973;50.518;7.318;2023-03-15T10:13:57;101165.28;;;6.77;100.00
3917;BME280;1973;50.518;7.318;2023-03-15T10:16:38;101171.22;;;6.80;100.00
3917;BME280;1973;50.518;7.318;2023-03-15T10:25:03;101157.69;;;7.24;100.00
3917;BME280;1973;50.518;7.318;2023-03-15T10:27:41;101157.56;;;7.55;100.00
3917;BME280;1973;50.518;7.318;2023-03-15T10:30:15;101140.84;;;8.09;100.00
3917;BME280;1973;50.518;7.318;2023-03-15T10:32:43;101150.56;;;8.26;100.00
3917;BME280;1973;50.518;7.318;2023-03-15T10:35:16;101143.75;;;8.37;100.00
3917;BME280;1973;50.518;7.318;2023-03-15T10:37:43;101143.56;;;8.23;100.00
3917;BME280;1973;50.518;7.318;2023-03-15T10:40:11;101160.78;;;8.17;100.00
3917;BME280;1973;50.518;7.318;2023-03-15T10:42:45;101172.31;;;7.98;100.00
3917;BME280;1973;50.518;7.318;2023-03-15T10:45:22;101178.78;;;7.76;100.00
3917;BME280;1973;50.518;7.318;2023-03-15T10:47:50;101173.84;;;7.57;100.00
3917;BME280;1973;50.518;7.318;2023-03-15T10:50:30;101170.22;;;7.42;100.00
3917;BME280;1973;50.518;7.318;2023-03-15T10:52:59;101176.13;;;7.30;100.00
3917;BME280;1973;50.518;7.318;2023-03-15T10:55:35;101162.69;;;7.21;100.00
3917;BME280;1973;50.518;7.318;2023-03-15T10:58:40;101167.75;;;7.47;100.00
3917;BME280;1973;50.518;7.318;2023-03-15T11:01:12;101164.94;;;7.84;100.00
3917;BME280;1973;50.518;7.318;2023-03-15T11:03:40;101163.91;;;8.14;100.00
3917;BME280;1973;50.518;7.318;2023-03-15T11:06:21;101160.25;;;8.58;100.00
3917;BME280;1973;50.518;7.318;2023-03-15T11:08:51;101162.22;;;9.06;100.00
3917;BME280;1973;50.518;7.318;2023-03-15T11:11:17;101148.47;;;9.49;100.00
3917;BME280;1973;50.518;7.318;2023-03-15T11:13:57;101157.50;;;9.70;100.00
3917;BME280;1973;50.518;7.318;2023-03-15T11:16:24;101150.59;;;9.88;100.00
3917;BME280;1973;50.518;7.318;2023-03-15T11:18:56;101144.97;;;10.02;100.00
3917;BME280;1973;50.518;7.318;2023-03-15T11:21:29;101158.56;;;10.45;100.00
3917;BME280;1973;50.518;7.318;2023-03-15T11:24:00;101158.25;;;10.87;100.00
3917;BME280;1973;50.518;7.318;2023-03-15T11:26:32;101168.19;;;10.75;97.79
3917;BME280;1973;50.518;7.318;2023-03-15T11:29:07;101178.97;;;10.63;100.00
3917;BME280;1973;50.518;7.318;2023-03-15T11:31:39;101184.34;;;10.37;100.00
3917;BME280;1973;50.518;7.318;2023-03-15T11:36:45;101179.97;;;9.81;100.00
3917;BME280;1973;50.518;7.318;2023-03-15T11:39:27;101185.31;;;9.61;100.00
3917;BME280;1973;50.518;7.318;2023-03-15T11:42:02;101195.31;;;9.41;100.00
3917;BME280;1973;50.518;7.318;2023-03-15T11:44:32;101196.25;;;9.26;100.00
3917;BME280;1973;50.518;7.318;2023-03-15T11:47:10;101206.44;;;9.11;100.00
3917;BME280;1973;50.518;7.318;2023-03-15T11:49:52;101215.31;;;8.92;99.62
3917;BME280;1973;50.518;7.318;2023-03-15T11:52:21;101209.91;;;8.99;100.00
3917;BME280;1973;50.518;7.318;2023-03-15T11:54:49;101191.41;;;9.07;100.00
3917;BME280;1973;50.518;7.318;2023-03-15T11:59:55;101201.22;;;9.93;96.74
3917;BME280;1973;50.518;7.318;2023-03-15T12:04:52;101202.94;;;10.29;84.92
3917;BME280;1973;50.518;7.318;2023-03-15T12:09:57;101203.81;;;10.01;71.81
3917;BME280;1973;50.518;7.318;2023-03-15T12:12:47;101223.38;;;9.85;81.32
3917;BME280;1973;50.518;7.318;2023-03-15T12:22:51;101231.63;;;9.15;75.07
3917;BME280;1973;50.518;7.318;2023-03-15T12:25:33;101224.88;;;8.96;74.27
3917;BME280;1973;50.518;7.318;2023-03-15T12:28:20;101227.09;;;8.86;80.10
3917;BME280;1973;50.518;7.318;2023-03-15T12:30:53;101227.84;;;8.80;75.28
3917;BME280;1973;50.518;7.318;2023-03-15T12:33:22;101236.22;;;8.72;79.43
3917;BME280;1973;50.518;7.318;2023-03-15T12:35:49;101233.13;;;8.96;77.32
3917;BME280;1973;50.518;7.318;2023-03-15T12:38:19;101230.66;;;9.22;71.57
3917;BME280;1973;50.518;7.318;2023-03-15T12:40:54;101222.88;;;9.75;67.72
3917;BME280;1973;50.518;7.318;2023-03-15T12:44:04;101212.94;;;10.43;59.79
3917;BME280;1973;50.518;7.318;2023-03-15T12:49:27;101202.19;;;11.35;55.43
3917;BME280;1973;50.518;7.318;2023-03-15T12:55:05;101209.16;;;11.04;56.71
3917;BME280;1973;50.518;7.318;2023-03-15T12:57:49;101193.06;;;11.28;58.25
3917;BME280;1973;50.518;7.318;2023-03-15T13:00:20;101192.88;;;11.62;60.13
3917;BME280;1973;50.518;7.318;2023-03-15T13:02:49;101189.69;;;11.85;58.20
3917;BME280;1973;50.518;7.318;2023-03-15T13:07:57;101183.16;;;12.50;49.75
3917;BME280;1973;50.518;7.318;2023-03-15T13:10:52;101187.38;;;12.59;46.53
3917;BME280;1973;50.518;7.318;2023-03-15T13:16:20;101185.19;;;12.67;48.28
3917;BME280;1973;50.518;7.318;2023-03-15T13:19:02;101183.91;;;12.70;47.44
3917;BME280;1973;50.518;7.318;2023-03-15T13:21:35;101180.41;;;12.88;47.18
3917;BME280;1973;50.518;7.318;2023-03-15T13:24:11;101176.44;;;13.08;46.88
3917;BME280;1973;50.518;7.318;2023-03-15T13:27:14;101170.75;;;13.35;45.27
3917;BME280;1973;50.518;7.318;2023-03-15T13:29:45;101175.09;;;13.49;47.21
3917;BME280;1973;50.518;7.318;2023-03-15T13:32:14;101167.09;;;13.65;45.91
3917;BME280;1973;50.518;7.318;2023-03-15T13:34:43;101166.22;;;13.90;45.45
3917;BME280;1973;50.518;7.318;2023-03-15T13:37:22;101168.94;;;13.96;42.89
3917;BME280;1973;50.518;7.318;2023-03-15T13:39:59;101170.66;;;13.73;45.03
3917;BME280;1973;50.518;7.318;2023-03-15T13:42:27;101167.03;;;13.23;45.71
3917;BME280;1973;50.518;7.318;2023-03-15T13:45:13;101174.69;;;13.21;41.44
3917;BME280;1973;50.518;7.318;2023-03-15T13:47:42;101177.44;;;12.89;45.49
3917;BME280;1973;50.518;7.318;2023-03-15T13:50:14;101181.31;;;12.82;43.69
3917;BME280;1973;50.518;7.318;2023-03-15T13:52:41;101181.19;;;13.01;45.46
3917;BME280;1973;50.518;7.318;2023-03-15T13:55:12;101179.91;;;12.97;44.06
3917;BME280;1973;50.518;7.318;2023-03-15T13:57:39;101183.63;;;13.23;44.71